• Join FlightAware (Why Join?)
  • Login
  • US Flag 
05:53AM EDT


 

Airport Tracker/Info


-or-


 

Live Flight TrackerFlight Track Log ✈ NKT522 ✈ 12-Jul-2013 ✈ KDTW - KGLR

Flight Track Log - Related Links

Times and Time Zones

All times are in EDT time to prevent confusion due to time zone crossing. See the NKT522 flight status page for this flight to view local times or setup timezone preferences in your user account.

Time Position Orientation Groundspeed Altitude Reporting Facility
EDT Latitude Longitude Course Direction KTS MPH feet Rate Location/Type
12:06PM 42.2536 -83.3578 320° Northwest 128 147 2,000  Level Cleveland Center
12:07PM 42.2822 -83.3869 323° Northwest 132 152 3,000 900 Climbing Cleveland Center
12:08PM 42.3106 -83.4247 315° West 140 161 3,900 480 Climbing Cleveland Center
12:09PM 42.3447 -83.4656 319° Northwest 182 209 4,000 -60 Climbing Cleveland Center
12:10PM 42.3853 -83.5125 319° Northwest 192 221 3,800 -60 Descending Cleveland Center
12:11PM 42.4350 -83.5289 346° North 177 204 3,900 60 Climbing Cleveland Center
12:12PM 42.4806 -83.5422 348° North 179 206 4,000  Climbing Cleveland Center
12:13PM 42.5406 -83.5619 346° North 180 207 4,000  Level Cleveland Center
12:14PM 42.5858 -83.5811 343° North 180 207 4,000  Level Cleveland Center
12:15PM 42.6353 -83.6003 344° North 181 208 4,000 120 Level Cleveland Center
12:16PM 42.6789 -83.6136 347° North 181 208 4,300 120 Climbing Cleveland Center
12:18PM 42.7585 -83.6493 342° North  Level Estimated
12:25PM 43.0953 -83.8015 342° North  Level Estimated
12:26PM 43.1434 -83.8234 342° North  Level Estimated
12:27PM 43.1915 -83.8453 342° North  Level Estimated
12:28PM 43.2396 -83.8673 342° North  Level Estimated
12:29PM 43.2877 -83.8893 342° North  Level Estimated
12:30PM 43.3358 -83.9113 342° North  Level Estimated
12:31PM 43.3838 -83.9334 342° North  Level Estimated
12:32PM 43.4319 -83.9555 342° North  Level Estimated
12:33PM 43.4800 -83.9776 342° North  Level Estimated
12:34PM 43.5280 -83.9997 342° North  Level Estimated
12:35PM 43.5761 -84.0219 342° North  Level Estimated
12:36PM 43.6242 -84.0442 341° North  Level Estimated
12:37PM 43.6722 -84.0664 341° North  Level Estimated
12:38PM 43.7203 -84.0887 341° North  Level Estimated
12:39PM 43.7683 -84.1111 341° North  Level Estimated
12:40PM 43.8163 -84.1335 341° North  Level Estimated
12:41PM 43.8644 -84.1559 341° North  Level Estimated
12:41PM 43.8003 -84.1217 341° North 181 208 8,000  Level Minneapolis Center
12:42PM 43.9124 -84.1783 341° North  Level Estimated
12:42PM 43.8478 -84.1450 340° North 181 208 8,000  Level Minneapolis Center
12:43PM 43.9604 -84.2008 341° North  Level Estimated
12:43PM 43.9033 -84.1711 341° North 178 205 8,000  Level Minneapolis Center
12:44PM 44.0085 -84.2233 341° North  Level Estimated
12:44PM 43.9517 -84.1936 341° North 182 209 8,000  Level Minneapolis Center
12:45PM 44.0565 -84.2459 341° North  Level Estimated
12:45PM 44.0050 -84.2175 342° North 186 214 8,000  Level Minneapolis Center
12:46PM 44.1045 -84.2685 341° North  Level Estimated
12:46PM 44.0531 -84.2400 341° North 185 213 8,000  Level Minneapolis Center
12:47PM 44.1053 -84.2650 341° North 185 213 8,000  Level Minneapolis Center
12:48PM 44.1569 -84.2894 341° North 184 212 8,000  Level Minneapolis Center
12:49PM 44.2050 -84.3133 340° North 184 212 8,000  Level Minneapolis Center
12:50PM 44.2569 -84.3383 341° North 186 214 8,000  Level Minneapolis Center
12:51PM 44.3053 -84.3603 342° North 185 213 8,000  Level Minneapolis Center
12:52PM 44.3578 -84.3853 341° North 185 213 8,000  Level Minneapolis Center
12:53PM 44.3947 -84.4342 317° Northwest 188 216 8,000  Level Minneapolis Center
12:54PM 44.4317 -84.4939 311° West 189 217 8,000  Level Minneapolis Center
12:55PM 44.4675 -84.5475 313° West 191 220 8,000  Level Minneapolis Center
12:56PM 44.5056 -84.6039 313° West 190 219 8,000  Level Minneapolis Center
12:57PM 44.5425 -84.6553 315° West 189 217 8,000  Level Minneapolis Center
12:58PM 44.5872 -84.6950 328° Northwest 189 217 8,000  Level Minneapolis Center
12:59PM 44.6311 -84.7336 328° Northwest 188 216 8,000 -300 Level Minneapolis Center
01:00PM 44.6939 -84.7461 352° North 190 219 7,400 -600 Descending Minneapolis Center
01:02PM 44.7515 -84.7323 10° North  Level FlightAware Approximate
01:09PM 45.0000 -84.7000 North  Level FlightAware Approximate
01:10PM 45.0130 -84.7035 North  Level Estimated
01:11PM 45.0130 -84.7035 North  Level Estimated
01:12PM 45.0130 -84.7035 North  Level Estimated
01:13PM 45.0130 -84.7035 North  Level Estimated
01:14PM 45.0130 -84.7035 North  Level Estimated